Time;durP1;ratioP1;P1;durP2;ratioP2;P2;SDS_P1;SDS_P2;PMS_P1;PMS_P2;Temp;Humidity;BMP_temperature;BMP_pressure;BME280_temperature;BME280_humidity;BME280_pressure;Samples;Min_cycle;Max_cycle;Signal;HPM_P1;HPM_P2
2024/02/27 00:00:22;;;;;;;6.12;4.90;;;;;;;12.26;69.70;99361.44;4490504;31;33381;-84
2024/02/27 00:02:50;;;;;;;3.65;3.40;;;;;;;12.57;67.97;99371.09;4477569;31;32810;-84
2024/02/27 00:05:18;;;;;;;3.05;2.85;;;;;;;12.64;68.00;99366.31;4478076;31;34191;-84
2024/02/27 00:07:46;;;;;;;7.82;3.35;;;;;;;12.61;67.93;99379.72;4492475;31;33793;-84
2024/02/27 00:10:14;;;;;;;4.25;2.58;;;;;;;12.56;67.59;99374.69;4478582;31;31947;-84
2024/02/27 00:12:42;;;;;;;5.28;4.22;;;;;;;12.62;67.18;99382.28;4492522;31;34209;-84
2024/02/27 00:15:09;;;;;;;6.28;4.45;;;;;;;12.59;66.73;99378.97;4493529;31;33619;-83
2024/02/27 00:17:37;;;;;;;2.40;2.20;;;;;;;12.59;67.10;99382.47;4479383;31;32290;-83
2024/02/27 00:20:07;;;;;;;8.10;3.78;;;;;;;12.92;66.33;99376.97;4477602;31;34230;-83
2024/02/27 00:22:34;;;;;;;4.57;4.15;;;;;;;12.98;66.92;99379.25;4490786;31;34754;-83
2024/02/27 00:25:03;;;;;;;3.90;3.25;;;;;;;13.27;67.44;99376.66;4491087;31;33158;-83
2024/02/27 00:27:30;;;;;;;4.90;3.30;;;;;;;13.26;68.06;99364.34;4479224;31;33976;-84
2024/02/27 00:29:58;;;;;;;6.37;4.43;;;;;;;12.67;70.35;99371.41;4477497;31;32690;-83
2024/02/27 00:32:26;;;;;;;5.25;4.28;;;;;;;13.12;69.34;99353.72;4491360;31;33680;-83
2024/02/27 00:34:53;;;;;;;5.65;4.10;;;;;;;13.10;69.12;99358.22;4478392;31;32778;-83
2024/02/27 00:37:21;;;;;;;5.97;5.00;;;;;;;13.02;69.65;99367.50;4477515;31;32176;-83
2024/02/27 00:39:49;;;;;;;3.58;3.28;;;;;;;13.13;69.35;99368.66;4489800;31;33482;-83
2024/02/27 00:42:16;;;;;;;7.55;4.78;;;;;;;13.11;69.35;99371.41;4478065;31;34108;-83
2024/02/27 00:44:45;;;;;;;10.90;3.67;;;;;;;13.37;68.33;99369.81;4494506;31;32310;-83
2024/02/27 00:47:13;;;;;;;5.45;4.55;;;;;;;13.23;68.13;99367.19;4487239;31;33464;-84
2024/02/27 00:49:41;;;;;;;4.82;4.32;;;;;;;13.31;68.72;99362.25;4491723;31;33332;-84
2024/02/27 00:52:10;;;;;;;4.85;2.55;;;;;;;13.24;68.92;99355.63;4479310;31;33747;-84
2024/02/27 00:54:38;;;;;;;9.23;6.10;;;;;;;13.05;69.85;99356.75;4477221;31;33948;-84
2024/02/27 00:57:05;;;;;;;6.15;5.60;;;;;;;13.13;69.05;99366.00;4481325;31;33437;-84
2024/02/27 00:59:33;;;;;;;5.85;4.65;;;;;;;13.23;68.59;99375.97;4489730;31;34527;-84
2024/02/27 01:02:01;;;;;;;3.58;3.37;;;;;;;13.42;68.23;99359.78;4478666;31;35735;-84
2024/02/27 01:04:28;;;;;;;8.57;4.45;;;;;;;13.31;68.60;99362.25;4493257;31;34251;-84
2024/02/27 01:06:56;;;;;;;5.10;4.32;;;;;;;13.27;68.28;99364.25;4476697;31;31575;-85
2024/02/27 01:09:24;;;;;;;6.43;4.97;;;;;;;13.25;68.22;99357.34;4478338;31;33937;-85
2024/02/27 01:11:52;;;;;;;5.75;4.65;;;;;;;13.28;68.11;99362.44;4491204;31;33616;-84
2024/02/27 01:14:20;;;;;;;6.85;4.50;;;;;;;13.28;67.46;99373.03;4474064;31;33572;-85
2024/02/27 01:16:48;;;;;;;5.30;4.43;;;;;;;13.37;66.94;99369.81;4477232;31;32767;-86
2024/02/27 01:19:16;;;;;;;3.15;2.58;;;;;;;13.38;66.69;99368.87;4476479;31;33887;-86
2024/02/27 01:21:44;;;;;;;4.28;3.95;;;;;;;13.44;66.25;99367.66;4461551;31;32925;-86
2024/02/27 01:24:12;;;;;;;10.25;7.07;;;;;;;13.39;66.58;99373.25;4465752;31;32875;-86
2024/02/27 01:26:39;;;;;;;5.65;4.35;;;;;;;13.31;67.01;99373.72;4473698;31;33653;-83
2024/02/27 01:29:07;;;;;;;3.53;2.55;;;;;;;13.30;66.86;99371.16;4490359;31;33216;-84
2024/02/27 01:31:36;;;;;;;10.20;6.70;;;;;;;13.24;66.56;99367.06;4488094;31;34032;-84
2024/02/27 01:34:04;;;;;;;10.40;5.50;;;;;;;13.14;66.78;99359.75;4476319;31;33845;-84
2024/02/27 01:36:32;;;;;;;9.48;4.45;;;;;;;13.21;66.93;99367.25;4477271;31;33144;-86
2024/02/27 01:38:59;;;;;;;7.03;4.62;;;;;;;13.12;66.83;99364.31;4476519;31;33842;-86
2024/02/27 01:41:28;;;;;;;54.90;5.10;;;;;;;13.25;66.50;99362.66;4493009;31;33594;-85
2024/02/27 01:43:56;;;;;;;4.68;4.28;;;;;;;13.19;66.74;99358.53;4492530;31;34053;-85
2024/02/27 01:46:25;;;;;;;4.07;3.67;;;;;;;13.13;66.50;99363.34;4491393;31;33009;-85
2024/02/27 01:48:54;;;;;;;2.72;2.47;;;;;;;13.07;66.58;99360.13;4465165;31;32499;-85
2024/02/27 01:51:22;;;;;;;4.07;3.78;;;;;;;13.17;65.99;99355.13;4489082;31;33657;-85
2024/02/27 01:53:53;;;;;;;2.70;2.47;;;;;;;13.01;66.03;99349.91;4488390;31;35112;-85
2024/02/27 01:56:22;;;;;;;5.37;2.00;;;;;;;13.11;65.57;99358.16;4470501;31;33222;-85
2024/02/27 01:58:50;;;;;;;3.72;3.42;;;;;;;13.06;65.76;99355.78;4479021;31;33149;-85
2024/02/27 02:01:19;;;;;;;4.05;2.80;;;;;;;13.11;65.80;99349.34;4489294;31;33711;-85
2024/02/27 02:03:51;;;;;;;5.00;4.65;;;;;;;13.11;65.79;99359.97;4479473;31;34207;-84
2024/02/27 02:06:19;;;;;;;3.43;3.13;;;;;;;13.19;65.26;99361.16;4488065;31;32967;-84
2024/02/27 02:08:48;;;;;;;2.87;2.67;;;;;;;13.23;65.11;99369.81;4477215;31;32762;-84
2024/02/27 02:11:15;;;;;;;4.03;2.67;;;;;;;13.17;64.58;99372.84;4493484;31;34012;-84
2024/02/27 02:13:43;;;;;;;8.70;3.85;;;;;;;13.01;64.83;99363.16;4486056;31;34045;-84
2024/02/27 02:16:11;;;;;;;3.12;2.92;;;;;;;12.89;65.18;99365.69;4478103;31;32422;-84
2024/02/27 02:18:39;;;;;;;3.87;1.65;;;;;;;13.04;64.50;99375.37;4475959;31;33925;-84
2024/02/27 02:21:06;;;;;;;3.47;2.30;;;;;;;13.10;64.37;99368.84;4474465;31;33603;-83
2024/02/27 02:23:34;;;;;;;5.22;4.53;;;;;;;13.08;63.91;99367.13;4488669;31;34638;-84
2024/02/27 02:26:02;;;;;;;4.87;3.22;;;;;;;12.93;63.79;99372.53;4490715;31;33415;-83
2024/02/27 02:28:30;;;;;;;3.20;2.72;;;;;;;12.92;64.19;99365.53;4479180;31;33541;-84
2024/02/27 02:30:57;;;;;;;2.70;2.53;;;;;;;13.00;64.07;99368.53;4488811;31;33972;-84
2024/02/27 02:33:27;;;;;;;2.62;2.45;;;;;;;13.05;64.02;99361.16;4475687;31;34100;-84
2024/02/27 02:35:55;;;;;;;2.80;2.60;;;;;;;13.11;63.69;99370.56;4463739;31;33131;-84
2024/02/27 02:38:23;;;;;;;13.13;4.40;;;;;;;13.16;63.19;99371.97;4492336;31;34288;-84
2024/02/27 02:40:50;;;;;;;2.08;1.98;;;;;;;12.86;63.96;99377.31;4479807;31;33945;-84
2024/02/27 02:43:18;;;;;;;2.72;2.62;;;;;;;13.04;63.15;99370.06;4490590;31;34580;-83
2024/02/27 02:45:45;;;;;;;6.47;3.90;;;;;;;12.90;63.51;99386.78;4477984;31;33104;-84
2024/02/27 02:48:13;;;;;;;2.75;2.55;;;;;;;12.99;63.25;99388.03;4491029;31;33792;-84
2024/02/27 02:50:41;;;;;;;19.75;2.60;;;;;;;12.99;62.82;99382.75;4489475;31;34798;-84
2024/02/27 02:53:09;;;;;;;8.70;2.83;;;;;;;13.02;62.63;99388.72;4478605;31;33751;-84
2024/02/27 02:55:42;;;;;;;2.97;2.75;;;;;;;13.06;62.53;99395.53;4477020;31;34158;-84
2024/02/27 02:58:09;;;;;;;2.22;1.67;;;;;;;12.85;62.85;99395.97;4488199;31;33593;-84
2024/02/27 03:00:37;;;;;;;1.45;1.35;;;;;;;13.01;61.97;99402.94;4478716;31;33404;-84
2024/02/27 03:03:05;;;;;;;2.17;2.00;;;;;;;12.88;61.95;99407.25;4493588;31;33980;-83
2024/02/27 03:05:33;;;;;;;2.90;2.53;;;;;;;12.78;62.60;99404.28;4488112;31;34348;-83
2024/02/27 03:08:00;;;;;;;1.98;1.52;;;;;;;12.96;61.71;99409.41;4477362;31;34434;-83
2024/02/27 03:10:28;;;;;;;7.53;3.97;;;;;;;12.79;61.98;99418.38;4493925;31;34053;-84
2024/02/27 03:12:56;;;;;;;3.37;2.50;;;;;;;12.77;62.16;99412.31;4479907;31;33305;-83
2024/02/27 03:15:23;;;;;;;4.30;2.42;;;;;;;12.89;61.59;99408.09;4490679;31;34242;-84
2024/02/27 03:17:52;;;;;;;1.77;1.67;;;;;;;12.94;61.42;99414.81;4491063;31;34552;-83
2024/02/27 03:20:20;;;;;;;2.05;1.45;;;;;;;12.97;60.95;99406.69;4490186;31;34024;-83
2024/02/27 03:22:48;;;;;;;3.87;2.92;;;;;;;12.88;61.18;99407.25;4479313;31;34460;-83
2024/02/27 03:25:15;;;;;;;2.28;2.08;;;;;;;12.75;61.96;99411.56;4495852;31;33371;-83
2024/02/27 03:27:44;;;;;;;4.70;3.28;;;;;;;12.98;60.97;99415.50;4491245;31;34693;-83
2024/02/27 03:30:13;;;;;;;2.87;2.67;;;;;;;12.86;61.43;99418.88;4478357;31;34042;-82
2024/02/27 03:32:41;;;;;;;2.50;2.17;;;;;;;12.63;62.06;99422.84;4479988;31;31461;-83
2024/02/27 03:35:09;;;;;;;1.85;1.75;;;;;;;12.65;62.19;99427.13;4490635;31;34052;-84
2024/02/27 03:37:37;;;;;;;3.80;3.12;;;;;;;12.55;62.95;99424.16;4479195;31;33969;-84
2024/02/27 03:40:07;;;;;;;7.97;2.28;;;;;;;12.57;62.73;99424.06;4477098;31;33739;-84
2024/02/27 03:42:35;;;;;;;1.10;1.05;;;;;;;12.61;62.69;99424.75;4466644;31;32296;-84
2024/02/27 03:45:04;;;;;;;4.68;1.90;;;;;;;12.73;62.08;99418.75;4478116;31;33016;-84
2024/02/27 03:47:32;;;;;;;5.85;2.65;;;;;;;12.68;62.43;99420.81;4478965;31;32577;-84
2024/02/27 03:50:00;;;;;;;2.90;2.70;;;;;;;12.66;62.40;99422.69;4460056;31;34936;-84
2024/02/27 03:52:27;;;;;;;1.77;1.67;;;;;;;12.69;62.17;99428.66;4473311;31;34091;-84
2024/02/27 03:54:55;;;;;;;2.12;1.55;;;;;;;12.61;62.27;99435.34;4485060;31;33223;-84
2024/02/27 03:57:23;;;;;;;1.35;1.25;;;;;;;12.55;62.69;99437.41;4484516;31;34448;-84
2024/02/27 03:59:51;;;;;;;1.77;1.62;;;;;;;12.55;62.91;99442.69;4482361;31;33927;-84
2024/02/27 04:02:18;;;;;;;7.90;3.10;;;;;;;12.65;62.27;99442.19;4469099;31;33509;-84
2024/02/27 04:04:46;;;;;;;2.00;1.80;;;;;;;12.74;61.99;99441.66;4485226;31;33367;-84
2024/02/27 04:07:14;;;;;;;1.20;1.10;;;;;;;12.65;62.29;99443.03;4472168;31;32294;-84
2024/02/27 04:09:41;;;;;;;1.20;0.93;;;;;;;12.89;61.75;99442.53;4486145;31;34014;-84
2024/02/27 04:12:09;;;;;;;0.85;0.85;;;;;;;12.73;61.77;99445.25;4467067;32;33755;-84
2024/02/27 04:14:37;;;;;;;0.10;0.10;;;;;;;12.80;61.68;99438.63;4486195;31;33016;-83
2024/02/27 04:17:05;;;;;;;2.00;1.90;;;;;;;12.92;60.93;99437.91;4473492;31;33608;-83
2024/02/27 04:19:32;;;;;;;3.40;1.58;;;;;;;12.89;61.20;99440.75;4485982;31;34171;-83
2024/02/27 04:22:00;;;;;;;1.25;1.17;;;;;;;12.90;61.31;99442.44;4500624;31;33829;-83
2024/02/27 04:24:28;;;;;;;1.17;0.60;;;;;;;12.88;61.62;99452.28;4486563;31;34359;-83
2024/02/27 04:26:56;;;;;;;2.40;1.02;;;;;;;12.77;61.96;99449.41;4485039;31;33802;-83
2024/02/27 04:29:24;;;;;;;4.57;1.00;;;;;;;12.87;61.77;99449.75;4500400;31;34055;-83
2024/02/27 04:31:51;;;;;;;1.85;1.75;;;;;;;12.82;61.72;99444.72;4485231;31;34506;-84
2024/02/27 04:34:19;;;;;;;1.15;1.05;;;;;;;12.80;61.51;99438.63;4470114;31;33018;-84
2024/02/27 04:36:49;;;;;;;1.15;0.75;;;;;;;12.86;61.63;99446.22;4472434;31;32536;-84
2024/02/27 04:39:17;;;;;;;2.37;1.52;;;;;;;13.10;60.89;99443.91;4500062;31;33816;-84
2024/02/27 04:41:45;;;;;;;10.35;2.00;;;;;;;12.91;61.42;99445.94;4486023;31;34517;-83
2024/02/27 04:44:12;;;;;;;3.35;2.45;;;;;;;13.15;60.64;99447.16;4499906;31;33770;-83
2024/02/27 04:46:40;;;;;;;2.22;1.85;;;;;;;13.07;60.63;99454.72;4486193;31;33935;-83
2024/02/27 04:49:08;;;;;;;2.30;1.98;;;;;;;12.92;61.51;99451.16;4492297;31;33884;-83
2024/02/27 04:51:35;;;;;;;1.05;1.02;;;;;;;12.80;61.78;99462.47;4492781;31;32625;-83
2024/02/27 04:54:03;;;;;;;1.12;1.08;;;;;;;12.48;62.66;99475.75;4478055;31;33395;-83
2024/02/27 04:56:31;;;;;;;2.92;1.75;;;;;;;12.56;62.61;99470.03;4466167;31;33222;-83
2024/02/27 04:59:00;;;;;;;2.12;1.95;;;;;;;12.92;61.18;99461.78;4491621;31;33461;-83
2024/02/27 05:01:27;;;;;;;1.42;1.33;;;;;;;12.85;61.29;99471.00;4495543;31;33980;-83
2024/02/27 05:03:55;;;;;;;2.08;1.87;;;;;;;12.77;61.60;99467.94;4481875;31;32261;-84
2024/02/27 05:06:23;;;;;;;3.97;1.92;;;;;;;12.66;61.95;99473.00;4474598;31;33198;-83
2024/02/27 05:08:51;;;;;;;2.53;1.27;;;;;;;12.66;61.54;99475.66;4479575;31;33582;-83
2024/02/27 05:11:18;;;;;;;1.42;1.12;;;;;;;12.85;61.03;99470.16;4491750;31;33383;-84
2024/02/27 05:13:46;;;;;;;1.45;1.35;;;;;;;12.74;61.39;99476.09;4491235;31;33360;-83
2024/02/27 05:16:14;;;;;;;1.48;1.15;;;;;;;12.63;61.73;99482.00;4477873;31;32422;-84
2024/02/27 05:18:42;;;;;;;1.40;1.30;;;;;;;12.61;61.51;99486.53;4467505;31;34337;-82
2024/02/27 05:21:10;;;;;;;4.12;1.50;;;;;;;12.73;61.15;99477.88;4476911;31;33873;-83
2024/02/27 05:23:38;;;;;;;9.55;3.45;;;;;;;12.67;61.29;99472.06;4464551;31;32819;-83
2024/02/27 05:26:05;;;;;;;2.95;2.75;;;;;;;12.67;61.73;99477.38;4492561;31;34370;-85
2024/02/27 05:28:33;;;;;;;1.87;1.77;;;;;;;12.69;61.82;99481.66;4476977;31;32605;-84
2024/02/27 05:31:01;;;;;;;2.55;2.25;;;;;;;12.60;62.14;99492.75;4478015;31;34226;-83
2024/02/27 05:33:29;;;;;;;3.12;1.25;;;;;;;12.76;61.84;99482.97;4489888;31;33170;-83
2024/02/27 05:35:57;;;;;;;2.53;2.33;;;;;;;12.72;61.70;99483.25;4494290;31;33924;-83
2024/02/27 05:38:24;;;;;;;0.88;0.85;;;;;;;12.76;61.93;99496.22;4489549;31;34074;-84
2024/02/27 05:40:52;;;;;;;4.95;3.00;;;;;;;12.45;63.01;99496.28;4476238;31;34543;-83
2024/02/27 05:43:20;;;;;;;1.87;1.15;;;;;;;12.42;63.43;99514.97;4479573;31;32910;-84
2024/02/27 05:45:47;;;;;;;2.45;1.20;;;;;;;12.62;62.80;99511.22;4476428;31;33909;-83
2024/02/27 05:48:15;;;;;;;3.58;2.97;;;;;;;12.81;62.05;99518.00;4466018;31;34513;-83
2024/02/27 05:50:45;;;;;;;2.15;2.05;;;;;;;12.89;61.71;99519.38;4493168;31;34475;-83
2024/02/27 05:53:13;;;;;;;7.50;2.75;;;;;;;13.06;60.84;99506.88;4475419;31;33374;-83
2024/02/27 05:55:41;;;;;;;3.12;2.90;;;;;;;13.09;60.95;99511.13;4488916;31;34582;-83
2024/02/27 05:58:08;;;;;;;1.02;0.95;;;;;;;13.15;60.83;99510.78;4479472;31;32602;-83
2024/02/27 06:00:36;;;;;;;2.55;1.25;;;;;;;13.14;60.86;99521.47;4464532;31;32290;-84
2024/02/27 06:03:04;;;;;;;1.52;1.50;;;;;;;12.70;62.23;99519.59;4465385;31;32438;-83
2024/02/27 06:05:32;;;;;;;5.22;1.87;;;;;;;12.29;63.37;99515.66;4489115;31;33820;-83
2024/02/27 06:07:59;;;;;;;2.47;2.25;;;;;;;12.41;63.27;99530.03;4476992;31;33719;-83
2024/02/27 06:10:27;;;;;;;0.70;0.70;;;;;;;12.17;63.68;99526.94;4464105;31;34957;-83
2024/02/27 06:12:55;;;;;;;2.37;1.65;;;;;;;12.01;64.61;99537.50;4466434;31;32695;-84
2024/02/27 06:15:23;;;;;;;2.53;2.28;;;;;;;11.93;65.03;99549.44;4490144;31;34725;-85
2024/02/27 06:17:51;;;;;;;1.70;1.60;;;;;;;12.11;64.08;99552.88;4477625;31;32597;-84
2024/02/27 06:23:04;;;;;;;1.62;1.52;;;;;;;12.26;63.67;99558.19;4493163;31;33568;-84
2024/02/27 06:25:32;;;;;;;1.65;1.55;;;;;;;12.67;62.28;99559.47;4491791;31;33471;-84
2024/02/27 06:27:59;;;;;;;11.27;2.90;;;;;;;12.69;62.07;99560.25;4478409;31;32683;-84
2024/02/27 06:30:27;;;;;;;5.70;1.87;;;;;;;12.72;61.70;99557.41;4466275;31;32526;-83
2024/02/27 06:32:55;;;;;;;2.30;2.17;;;;;;;12.57;62.34;99557.34;4493250;31;32068;-83
2024/02/27 06:35:24;;;;;;;2.60;2.40;;;;;;;12.44;62.55;99561.63;4469525;31;33483;-83
2024/02/27 06:37:51;;;;;;;0.95;0.95;;;;;;;12.57;62.05;99567.09;4492019;31;34474;-83
2024/02/27 06:40:19;;;;;;;2.22;2.03;;;;;;;12.29;63.41;99570.38;4478879;31;33262;-83
2024/02/27 06:42:46;;;;;;;1.70;1.25;;;;;;;12.55;62.80;99580.44;4492012;31;34047;-83
2024/02/27 06:45:15;;;;;;;3.10;2.22;;;;;;;12.63;62.41;99587.97;4461345;31;33863;-83
2024/02/27 06:47:42;;;;;;;2.90;2.53;;;;;;;12.61;62.54;99588.97;4463536;31;32683;-83
2024/02/27 06:50:11;;;;;;;3.00;2.58;;;;;;;12.28;63.65;99589.87;4477255;31;33615;-84
2024/02/27 06:52:39;;;;;;;1.65;1.55;;;;;;;12.65;61.85;99579.91;4490919;31;33802;-81
2024/02/27 06:55:07;;;;;;;0.88;0.85;;;;;;;12.95;61.15;99586.12;4475200;31;32074;-81
2024/02/27 06:57:35;;;;;;;6.25;2.40;;;;;;;12.49;61.97;99591.38;4489532;31;32689;-81
2024/02/27 07:00:07;;;;;;;4.40;3.55;;;;;;;12.52;62.40;99585.88;4476387;31;33803;-81
2024/02/27 07:02:34;;;;;;;2.08;1.87;;;;;;;12.73;61.73;99583.00;4469760;31;32128;-81
2024/02/27 07:05:03;;;;;;;1.62;1.35;;;;;;;12.39;62.67;99583.97;4489147;31;33041;-81
2024/02/27 07:07:31;;;;;;;1.52;1.33;;;;;;;12.92;61.35;99598.72;4489805;31;34734;-82
2024/02/27 07:10:01;;;;;;;2.97;1.92;;;;;;;12.76;61.39;99599.56;4475264;31;33919;-81
2024/02/27 07:12:32;;;;;;;3.08;2.78;;;;;;;12.25;63.50;99603.28;4488679;31;34411;-81
2024/02/27 07:15:00;;;;;;;2.78;2.58;;;;;;;12.88;61.90;99603.34;4477530;31;32824;-81
2024/02/27 07:17:29;;;;;;;1.33;1.23;;;;;;;12.84;61.75;99600.94;4480289;31;33769;-81
2024/02/27 07:19:57;;;;;;;1.25;1.23;;;;;;;13.00;61.39;99604.41;4476549;31;32910;-80
2024/02/27 07:22:25;;;;;;;2.03;1.30;;;;;;;12.62;62.21;99612.72;4456507;31;33360;-79
2024/02/27 07:24:53;;;;;;;2.35;1.50;;;;;;;13.01;61.17;99616.75;4477173;31;32847;-80
2024/02/27 07:27:21;;;;;;;2.50;1.83;;;;;;;13.01;61.04;99620.25;4486912;31;33228;-79
2024/02/27 07:29:49;;;;;;;2.37;2.03;;;;;;;13.20;59.79;99624.50;4477936;31;34105;-79
2024/02/27 07:32:17;;;;;;;1.55;1.45;;;;;;;12.95;61.04;99615.28;4481206;31;31989;-80
2024/02/27 07:34:46;;;;;;;4.20;1.98;;;;;;;12.74;61.65;99627.09;4479947;31;34150;-80
2024/02/27 07:37:14;;;;;;;1.70;1.60;;;;;;;13.10;60.57;99623.31;4490215;31;32591;-80
2024/02/27 07:39:42;;;;;;;1.87;1.50;;;;;;;13.20;60.46;99619.22;4473565;31;32297;-79
2024/02/27 07:42:10;;;;;;;2.00;1.70;;;;;;;13.06;61.06;99625.28;4473954;31;32549;-80
2024/02/27 07:44:38;;;;;;;3.37;3.15;;;;;;;12.82;61.77;99624.88;4474607;31;31720;-79
2024/02/27 07:47:06;;;;;;;2.12;1.65;;;;;;;12.88;61.44;99624.53;4462823;31;33348;-80
2024/02/27 07:49:33;;;;;;;1.85;1.75;;;;;;;13.09;61.07;99633.06;4463212;31;33033;-80
2024/02/27 07:52:01;;;;;;;3.45;2.10;;;;;;;13.22;60.22;99630.59;4486295;31;32939;-80
2024/02/27 07:54:28;;;;;;;3.83;1.73;;;;;;;13.22;60.70;99627.94;4484395;31;33947;-79
2024/02/27 07:56:56;;;;;;;2.72;2.12;;;;;;;13.08;61.07;99626.91;4492636;31;34777;-80
2024/02/27 07:59:24;;;;;;;0.73;0.50;;;;;;;13.43;59.49;99616.09;4487841;31;32035;-81
2024/02/27 08:01:51;;;;;;;1.60;1.50;;;;;;;13.54;59.34;99619.00;4486684;31;32868;-80
2024/02/27 08:04:19;;;;;;;0.85;0.85;;;;;;;13.49;59.93;99626.38;4479372;31;32695;-80
2024/02/27 08:06:47;;;;;;;1.67;1.58;;;;;;;13.69;58.67;99616.38;4477085;31;33841;-81
2024/02/27 08:09:18;;;;;;;1.80;1.70;;;;;;;13.37;59.73;99621.75;4486589;31;33755;-81
2024/02/27 08:11:45;;;;;;;2.92;1.50;;;;;;;13.51;59.94;99640.38;4486378;31;32043;-81
2024/02/27 08:14:13;;;;;;;1.73;1.48;;;;;;;13.69;59.55;99624.34;4490675;31;33695;-81
2024/02/27 08:16:40;;;;;;;0.98;0.88;;;;;;;13.52;59.92;99628.81;4494477;31;34106;-81
2024/02/27 08:19:08;;;;;;;3.30;1.77;;;;;;;13.85;58.71;99627.78;4480338;31;33906;-81
2024/02/27 08:21:36;;;;;;;1.92;1.50;;;;;;;13.32;60.37;99627.31;4463563;31;32576;-81
2024/02/27 08:24:05;;;;;;;2.25;2.10;;;;;;;13.51;59.97;99623.59;4478979;31;34557;-81
2024/02/27 08:26:33;;;;;;;9.35;2.12;;;;;;;13.44;59.58;99627.59;4478083;31;33267;-80
2024/02/27 08:29:01;;;;;;;1.85;1.75;;;;;;;13.54;59.91;99613.69;4477606;31;33157;-81
2024/02/27 08:31:28;;;;;;;2.67;2.47;;;;;;;13.64;59.71;99619.31;4464033;31;32759;-81
2024/02/27 08:33:56;;;;;;;4.07;2.70;;;;;;;13.81;58.95;99610.31;4482389;31;33660;-81
2024/02/27 08:36:29;;;;;;;4.05;1.40;;;;;;;13.70;59.14;99615.41;4473687;31;32235;-81
2024/02/27 08:38:56;;;;;;;5.80;2.95;;;;;;;14.01;58.71;99617.94;4492151;31;33727;-81
2024/02/27 08:41:24;;;;;;;1.58;1.27;;;;;;;13.70;58.97;99618.06;4475267;31;33324;-81
2024/02/27 08:43:52;;;;;;;2.35;2.20;;;;;;;13.94;58.54;99610.44;4489395;31;33609;-81
2024/02/27 08:46:19;;;;;;;5.47;1.98;;;;;;;13.97;58.70;99621.72;4477827;31;33907;-81
2024/02/27 08:48:47;;;;;;;1.48;1.42;;;;;;;14.23;57.53;99632.56;4476585;31;33864;-81
2024/02/27 08:51:15;;;;;;;8.35;2.72;;;;;;;13.94;58.09;99634.31;4495396;31;34278;-81
2024/02/27 08:53:43;;;;;;;2.53;2.33;;;;;;;13.85;59.28;99633.06;4494023;31;33830;-81
2024/02/27 08:56:10;;;;;;;3.17;2.30;;;;;;;14.37;58.04;99621.94;4477959;31;35260;-81
2024/02/27 08:58:38;;;;;;;2.58;1.98;;;;;;;14.47;57.08;99619.56;4495446;31;34451;-81
2024/02/27 09:01:06;;;;;;;1.42;1.35;;;;;;;14.08;58.04;99627.25;4484841;31;33030;-81
2024/02/27 09:03:34;;;;;;;9.52;3.20;;;;;;;14.29;57.36;99635.72;4492656;31;33941;-81
2024/02/27 09:06:02;;;;;;;2.33;2.20;;;;;;;14.71;56.37;99622.50;4477631;31;34855;-81
2024/02/27 09:08:31;;;;;;;3.10;2.83;;;;;;;13.99;58.06;99640.22;4492832;31;33575;-81
2024/02/27 09:10:58;;;;;;;14.10;4.10;;;;;;;14.41;57.79;99630.56;4495805;31;32841;-81
2024/02/27 09:13:26;;;;;;;1.87;1.12;;;;;;;14.65;56.57;99625.56;4472459;31;34534;-81
2024/02/27 09:15:54;;;;;;;5.35;3.35;;;;;;;15.00;55.18;99617.97;4474991;31;32561;-81
2024/02/27 09:18:21;;;;;;;5.35;2.42;;;;;;;14.82;56.85;99628.00;4489669;31;34718;-81
2024/02/27 09:20:49;;;;;;;2.80;2.10;;;;;;;15.03;55.78;99626.63;4478401;31;32919;-81
2024/02/27 09:23:18;;;;;;;1.12;1.12;;;;;;;15.10;55.79;99646.56;4490616;31;33903;-81
2024/02/27 09:25:46;;;;;;;9.63;3.62;;;;;;;14.79;55.95;99641.47;4479906;31;35031;-81
2024/02/27 09:28:13;;;;;;;3.95;2.47;;;;;;;15.15;55.54;99642.75;4489957;31;33642;-81
2024/02/27 09:30:41;;;;;;;2.30;2.10;;;;;;;15.09;55.24;99634.19;4490819;31;33355;-81
2024/02/27 09:33:09;;;;;;;3.00;2.75;;;;;;;15.69;55.32;99634.75;4477702;31;32318;-81
2024/02/27 09:35:37;;;;;;;1.85;1.75;;;;;;;15.98;53.74;99633.59;4463271;31;34258;-81
2024/02/27 09:38:05;;;;;;;9.23;3.08;;;;;;;16.42;52.72;99623.47;4464633;31;33869;-81
2024/02/27 09:40:32;;;;;;;1.83;1.73;;;;;;;16.04;52.44;99635.84;4492566;31;33553;-81
2024/02/27 09:43:01;;;;;;;6.90;3.42;;;;;;;16.27;52.33;99636.06;4490485;31;33791;-81
2024/02/27 09:45:30;;;;;;;1.77;1.67;;;;;;;15.82;52.38;99633.81;4484905;31;33329;-81
2024/02/27 09:48:01;;;;;;;5.18;2.50;;;;;;;15.88;52.59;99640.53;4476463;31;34374;-81
2024/02/27 09:50:31;;;;;;;3.42;3.12;;;;;;;16.05;53.31;99629.59;4476944;31;31936;-81
2024/02/27 09:53:00;;;;;;;7.12;2.65;;;;;;;16.04;52.79;99632.31;4477576;31;33276;-81
2024/02/27 09:55:28;;;;;;;15.80;2.95;;;;;;;16.03;51.85;99641.28;4490373;31;33981;-81
2024/02/27 09:57:58;;;;;;;2.45;2.25;;;;;;;15.74;52.54;99645.94;4492953;31;34019;-81
2024/02/27 10:00:26;;;;;;;1.27;1.25;;;;;;;15.67;53.36;99647.31;4484403;31;32583;-81
2024/02/27 10:02:55;;;;;;;8.07;1.80;;;;;;;16.10;52.29;99632.78;4481487;31;32277;-81
2024/02/27 10:05:23;;;;;;;2.78;2.30;;;;;;;16.30;52.09;99641.19;4479416;31;34880;-81
2024/02/27 10:07:51;;;;;;;3.05;2.80;;;;;;;16.18;52.35;99642.03;4478791;31;34603;-81
2024/02/27 10:10:19;;;;;;;0.98;0.98;;;;;;;16.28;52.23;99648.41;4476882;31;33460;-81
2024/02/27 10:12:46;;;;;;;2.25;1.58;;;;;;;16.26;51.88;99645.03;4496799;31;33957;-81
2024/02/27 10:15:14;;;;;;;3.05;2.58;;;;;;;16.59;51.64;99639.12;4464953;31;33412;-81
2024/02/27 10:17:43;;;;;;;4.37;2.40;;;;;;;16.87;50.42;99654.03;4479751;31;34568;-81
2024/02/27 10:20:17;;;;;;;4.00;3.70;;;;;;;16.46;51.96;99660.47;4482136;31;34226;-81
2024/02/27 10:22:45;;;;;;;;;;;;;;;16.41;51.84;99651.09;4478286;31;34213;-81
2024/02/27 10:25:16;;;;;;;9.23;2.15;;;;;;;16.19;52.14;99662.38;4478256;31;34640;-81
2024/02/27 10:27:44;;;;;;;4.17;2.67;;;;;;;16.25;52.49;99661.97;4495215;31;34669;-81
2024/02/27 10:30:14;;;;;;;3.00;2.72;;;;;;;16.33;51.66;99659.59;4480328;31;33558;-81
2024/02/27 10:32:43;;;;;;;3.12;2.72;;;;;;;16.70;51.81;99652.53;4477221;31;32852;-81
2024/02/27 10:35:13;;;;;;;6.82;2.92;;;;;;;16.43;52.20;99654.53;4465341;31;33174;-81
2024/02/27 10:37:43;;;;;;;2.65;2.12;;;;;;;16.43;51.33;99658.03;4482946;31;33145;-81
2024/02/27 10:40:12;;;;;;;1.05;1.05;;;;;;;16.58;50.91;99659.63;4476292;31;33121;-81
2024/02/27 10:42:41;;;;;;;3.20;2.90;;;;;;;16.73;50.78;99659.53;4476891;31;32105;-81
2024/02/27 10:45:10;;;;;;;3.22;2.90;;;;;;;16.26;53.00;99661.00;4475067;31;33994;-81
2024/02/27 10:47:38;;;;;;;5.00;3.30;;;;;;;16.25;52.11;99661.97;4489825;31;33823;-81
2024/02/27 10:50:06;;;;;;;3.03;2.28;;;;;;;16.76;51.17;99660.16;4480316;31;34836;-81
2024/02/27 10:52:37;;;;;;;1.05;0.95;;;;;;;16.71;51.00;99656.06;4466347;31;32488;-81
2024/02/27 10:55:05;;;;;;;3.28;2.03;;;;;;;16.31;52.11;99657.06;4491885;31;34835;-81
2024/02/27 10:57:33;;;;;;;2.35;2.20;;;;;;;16.80;50.75;99656.28;4479031;31;33468;-82
2024/02/27 11:00:02;;;;;;;6.40;1.35;;;;;;;16.62;51.12;99657.59;4491036;31;33457;-81
2024/02/27 11:02:32;;;;;;;5.95;2.50;;;;;;;16.72;50.87;99647.16;4487282;31;33685;-81
2024/02/27 11:04:59;;;;;;;2.78;2.58;;;;;;;16.47;52.00;99656.84;4487043;31;33914;-81
2024/02/27 11:07:28;;;;;;;1.92;1.83;;;;;;;16.31;51.78;99648.22;4490413;31;32988;-81
2024/02/27 11:09:58;;;;;;;1.95;1.65;;;;;;;16.16;52.08;99646.62;4487735;31;33445;-81
2024/02/27 11:12:27;;;;;;;2.87;2.12;;;;;;;16.94;50.78;99639.28;4491238;31;34699;-81
2024/02/27 11:15:01;;;;;;;2.50;1.80;;;;;;;16.81;51.40;99643.84;4477781;31;34467;-81
2024/02/27 11:17:33;;;;;;;2.30;2.00;;;;;;;17.03;50.08;99643.09;4475756;31;32961;-81
2024/02/27 11:20:02;;;;;;;5.00;2.80;;;;;;;16.77;50.42;99643.19;4485258;31;30190;-81
2024/02/27 11:22:30;;;;;;;2.70;2.05;;;;;;;16.61;51.92;99642.53;4488129;31;34029;-81
2024/02/27 11:24:58;;;;;;;2.40;2.22;;;;;;;16.86;51.13;99639.03;4489243;31;32123;-81
2024/02/27 11:27:26;;;;;;;6.10;3.03;;;;;;;17.04;50.13;99640.34;4492524;31;33166;-82
2024/02/27 11:29:56;;;;;;;2.00;1.75;;;;;;;16.82;50.20;99633.03;4489906;31;34170;-81
2024/02/27 11:32:24;;;;;;;1.45;1.35;;;;;;;16.98;50.36;99632.78;4485171;31;33777;-81
2024/02/27 11:34:52;;;;;;;1.20;1.12;;;;;;;16.60;51.15;99630.16;4485225;31;33682;-81
2024/02/27 11:37:20;;;;;;;1.98;1.87;;;;;;;16.80;50.75;99631.44;4491712;31;34596;-81
2024/02/27 11:39:49;;;;;;;4.05;2.80;;;;;;;17.22;50.01;99626.59;4493134;31;31935;-81